sensor_id;sensor_type;location;lat;lon;timestamp;P1;durP1;ratioP1;P2;durP2;ratioP2
39264;SDS011;42646;51.910;7.724;2023-01-19T00:01:32;12.98;;;8.57;;
39264;SDS011;42646;51.910;7.724;2023-01-19T00:04:00;15.60;;;8.75;;
39264;SDS011;42646;51.910;7.724;2023-01-19T00:06:28;17.60;;;9.07;;
39264;SDS011;42646;51.910;7.724;2023-01-19T00:08:57;13.85;;;8.90;;
39264;SDS011;42646;51.910;7.724;2023-01-19T00:11:25;11.63;;;8.43;;
39264;SDS011;42646;51.910;7.724;2023-01-19T00:13:54;13.82;;;8.98;;
39264;SDS011;42646;51.910;7.724;2023-01-19T00:16:22;14.50;;;9.10;;
39264;SDS011;42646;51.910;7.724;2023-01-19T00:18:51;14.68;;;9.85;;
39264;SDS011;42646;51.910;7.724;2023-01-19T00:21:20;13.30;;;8.65;;
39264;SDS011;42646;51.910;7.724;2023-01-19T00:23:48;13.73;;;8.75;;
39264;SDS011;42646;51.910;7.724;2023-01-19T00:26:18;16.48;;;9.57;;
39264;SDS011;42646;51.910;7.724;2023-01-19T00:28:48;13.95;;;8.60;;
39264;SDS011;42646;51.910;7.724;2023-01-19T00:31:18;11.00;;;8.38;;
39264;SDS011;42646;51.910;7.724;2023-01-19T00:33:47;14.98;;;9.25;;
39264;SDS011;42646;51.910;7.724;2023-01-19T00:36:17;14.98;;;9.05;;
39264;SDS011;42646;51.910;7.724;2023-01-19T00:38:46;15.88;;;8.88;;
39264;SDS011;42646;51.910;7.724;2023-01-19T00:41:14;12.73;;;8.30;;
39264;SDS011;42646;51.910;7.724;2023-01-19T00:43:42;13.38;;;9.00;;
39264;SDS011;42646;51.910;7.724;2023-01-19T00:46:09;13.18;;;9.43;;
39264;SDS011;42646;51.910;7.724;2023-01-19T00:49:04;14.15;;;9.00;;
39264;SDS011;42646;51.910;7.724;2023-01-19T00:51:32;15.90;;;9.25;;
39264;SDS011;42646;51.910;7.724;2023-01-19T00:53:59;16.38;;;9.45;;
39264;SDS011;42646;51.910;7.724;2023-01-19T00:56:30;14.07;;;9.40;;
39264;SDS011;42646;51.910;7.724;2023-01-19T00:58:58;14.75;;;9.30;;
39264;SDS011;42646;51.910;7.724;2023-01-19T01:01:26;15.60;;;10.05;;
39264;SDS011;42646;51.910;7.724;2023-01-19T01:04:12;14.45;;;9.38;;
39264;SDS011;42646;51.910;7.724;2023-01-19T01:06:40;12.77;;;9.48;;
39264;SDS011;42646;51.910;7.724;2023-01-19T01:09:08;13.98;;;9.60;;
39264;SDS011;42646;51.910;7.724;2023-01-19T01:11:37;15.02;;;9.98;;
39264;SDS011;42646;51.910;7.724;2023-01-19T01:14:06;14.57;;;10.10;;
39264;SDS011;42646;51.910;7.724;2023-01-19T01:16:35;14.98;;;10.02;;
39264;SDS011;42646;51.910;7.724;2023-01-19T01:19:04;16.83;;;10.50;;
39264;SDS011;42646;51.910;7.724;2023-01-19T01:21:33;16.25;;;10.60;;
39264;SDS011;42646;51.910;7.724;2023-01-19T01:24:02;15.05;;;10.18;;
39264;SDS011;42646;51.910;7.724;2023-01-19T01:26:30;14.80;;;10.23;;
39264;SDS011;42646;51.910;7.724;2023-01-19T01:28:58;15.00;;;10.30;;
39264;SDS011;42646;51.910;7.724;2023-01-19T01:31:25;15.75;;;10.43;;
39264;SDS011;42646;51.910;7.724;2023-01-19T01:33:54;17.13;;;10.02;;
39264;SDS011;42646;51.910;7.724;2023-01-19T01:36:22;15.63;;;10.50;;
39264;SDS011;42646;51.910;7.724;2023-01-19T01:38:53;14.25;;;10.50;;
39264;SDS011;42646;51.910;7.724;2023-01-19T01:41:21;16.73;;;10.82;;
39264;SDS011;42646;51.910;7.724;2023-01-19T01:43:53;14.95;;;10.18;;
39264;SDS011;42646;51.910;7.724;2023-01-19T01:48:54;15.20;;;10.15;;
39264;SDS011;42646;51.910;7.724;2023-01-19T01:51:29;16.90;;;10.05;;
39264;SDS011;42646;51.910;7.724;2023-01-19T01:54:07;14.65;;;10.05;;
39264;SDS011;42646;51.910;7.724;2023-01-19T01:56:46;16.10;;;10.75;;
39264;SDS011;42646;51.910;7.724;2023-01-19T01:59:16;16.15;;;11.45;;
39264;SDS011;42646;51.910;7.724;2023-01-19T02:01:52;16.38;;;10.15;;
39264;SDS011;42646;51.910;7.724;2023-01-19T02:04:42;16.70;;;10.32;;
39264;SDS011;42646;51.910;7.724;2023-01-19T02:07:15;13.68;;;10.23;;
39264;SDS011;42646;51.910;7.724;2023-01-19T02:10:33;14.75;;;10.55;;
39264;SDS011;42646;51.910;7.724;2023-01-19T02:13:18;14.82;;;10.00;;
39264;SDS011;42646;51.910;7.724;2023-01-19T02:15:48;16.48;;;10.90;;
39264;SDS011;42646;51.910;7.724;2023-01-19T02:20:51;15.63;;;10.32;;
39264;SDS011;42646;51.910;7.724;2023-01-19T02:23:30;14.77;;;10.30;;
39264;SDS011;42646;51.910;7.724;2023-01-19T02:26:04;18.30;;;11.10;;
39264;SDS011;42646;51.910;7.724;2023-01-19T02:28:36;16.52;;;10.52;;
39264;SDS011;42646;51.910;7.724;2023-01-19T02:31:07;14.45;;;10.63;;
39264;SDS011;42646;51.910;7.724;2023-01-19T02:33:36;15.48;;;10.43;;
39264;SDS011;42646;51.910;7.724;2023-01-19T02:36:04;14.35;;;10.05;;
39264;SDS011;42646;51.910;7.724;2023-01-19T02:38:37;15.30;;;10.60;;
39264;SDS011;42646;51.910;7.724;2023-01-19T02:41:07;15.20;;;10.43;;
39264;SDS011;42646;51.910;7.724;2023-01-19T02:43:38;16.85;;;10.77;;
39264;SDS011;42646;51.910;7.724;2023-01-19T02:46:07;15.18;;;9.88;;
39264;SDS011;42646;51.910;7.724;2023-01-19T02:51:31;14.80;;;9.50;;
39264;SDS011;42646;51.910;7.724;2023-01-19T02:54:10;15.15;;;9.93;;
39264;SDS011;42646;51.910;7.724;2023-01-19T02:57:01;13.77;;;9.38;;
39264;SDS011;42646;51.910;7.724;2023-01-19T02:59:42;12.88;;;8.93;;
39264;SDS011;42646;51.910;7.724;2023-01-19T03:02:26;13.55;;;9.68;;
39264;SDS011;42646;51.910;7.724;2023-01-19T03:07:44;16.85;;;9.38;;
39264;SDS011;42646;51.910;7.724;2023-01-19T03:10:21;14.85;;;9.60;;
39264;SDS011;42646;51.910;7.724;2023-01-19T03:12:58;13.30;;;9.05;;
39264;SDS011;42646;51.910;7.724;2023-01-19T03:15:34;14.80;;;9.75;;
39264;SDS011;42646;51.910;7.724;2023-01-19T03:18:13;13.73;;;9.68;;
39264;SDS011;42646;51.910;7.724;2023-01-19T03:20:46;15.90;;;9.45;;
39264;SDS011;42646;51.910;7.724;2023-01-19T03:23:17;15.30;;;9.63;;
39264;SDS011;42646;51.910;7.724;2023-01-19T03:25:50;16.88;;;10.13;;
39264;SDS011;42646;51.910;7.724;2023-01-19T03:28:27;17.85;;;9.80;;
39264;SDS011;42646;51.910;7.724;2023-01-19T03:30:58;13.10;;;9.60;;
39264;SDS011;42646;51.910;7.724;2023-01-19T03:33:32;13.85;;;9.70;;
39264;SDS011;42646;51.910;7.724;2023-01-19T03:36:07;14.05;;;10.00;;
39264;SDS011;42646;51.910;7.724;2023-01-19T03:38:39;14.15;;;9.43;;
39264;SDS011;42646;51.910;7.724;2023-01-19T03:41:11;14.93;;;9.27;;
39264;SDS011;42646;51.910;7.724;2023-01-19T03:43:42;12.95;;;9.40;;
39264;SDS011;42646;51.910;7.724;2023-01-19T03:46:12;15.82;;;9.60;;
39264;SDS011;42646;51.910;7.724;2023-01-19T03:48:42;16.42;;;9.93;;
39264;SDS011;42646;51.910;7.724;2023-01-19T03:51:15;13.52;;;9.48;;
39264;SDS011;42646;51.910;7.724;2023-01-19T03:53:44;14.40;;;9.23;;
39264;SDS011;42646;51.910;7.724;2023-01-19T03:56:17;13.40;;;9.57;;
39264;SDS011;42646;51.910;7.724;2023-01-19T03:58:46;16.27;;;9.48;;
39264;SDS011;42646;51.910;7.724;2023-01-19T04:01:16;14.00;;;9.23;;
39264;SDS011;42646;51.910;7.724;2023-01-19T04:03:49;15.30;;;9.65;;
39264;SDS011;42646;51.910;7.724;2023-01-19T04:06:18;15.93;;;8.77;;
39264;SDS011;42646;51.910;7.724;2023-01-19T04:08:48;14.20;;;9.23;;
39264;SDS011;42646;51.910;7.724;2023-01-19T04:11:18;13.55;;;9.05;;
39264;SDS011;42646;51.910;7.724;2023-01-19T04:13:46;15.35;;;9.10;;
39264;SDS011;42646;51.910;7.724;2023-01-19T04:16:14;15.52;;;9.05;;
39264;SDS011;42646;51.910;7.724;2023-01-19T04:18:45;16.75;;;9.48;;
39264;SDS011;42646;51.910;7.724;2023-01-19T04:21:13;14.70;;;9.18;;
39264;SDS011;42646;51.910;7.724;2023-01-19T04:23:41;12.25;;;8.90;;
39264;SDS011;42646;51.910;7.724;2023-01-19T04:26:11;14.85;;;9.57;;
39264;SDS011;42646;51.910;7.724;2023-01-19T04:28:41;14.35;;;8.77;;
39264;SDS011;42646;51.910;7.724;2023-01-19T04:31:08;13.35;;;9.15;;
39264;SDS011;42646;51.910;7.724;2023-01-19T04:34:02;12.82;;;8.75;;
39264;SDS011;42646;51.910;7.724;2023-01-19T04:36:30;17.02;;;9.30;;
39264;SDS011;42646;51.910;7.724;2023-01-19T04:38:58;14.98;;;8.88;;
39264;SDS011;42646;51.910;7.724;2023-01-19T04:41:26;15.63;;;9.48;;
39264;SDS011;42646;51.910;7.724;2023-01-19T04:43:56;12.52;;;8.52;;
39264;SDS011;42646;51.910;7.724;2023-01-19T04:46:25;16.42;;;9.35;;
39264;SDS011;42646;51.910;7.724;2023-01-19T04:48:53;13.70;;;8.73;;
39264;SDS011;42646;51.910;7.724;2023-01-19T04:51:22;13.68;;;9.25;;
39264;SDS011;42646;51.910;7.724;2023-01-19T04:53:50;13.15;;;8.65;;
39264;SDS011;42646;51.910;7.724;2023-01-19T04:56:18;15.40;;;9.40;;
39264;SDS011;42646;51.910;7.724;2023-01-19T04:58:48;13.60;;;9.25;;
39264;SDS011;42646;51.910;7.724;2023-01-19T05:01:17;13.88;;;9.05;;
39264;SDS011;42646;51.910;7.724;2023-01-19T05:03:45;14.52;;;9.07;;
39264;SDS011;42646;51.910;7.724;2023-01-19T05:06:13;13.93;;;9.60;;
39264;SDS011;42646;51.910;7.724;2023-01-19T05:08:42;20.88;;;11.80;;
39264;SDS011;42646;51.910;7.724;2023-01-19T05:11:11;15.43;;;9.80;;
39264;SDS011;42646;51.910;7.724;2023-01-19T05:13:40;14.88;;;10.60;;
39264;SDS011;42646;51.910;7.724;2023-01-19T05:16:09;21.35;;;10.20;;
39264;SDS011;42646;51.910;7.724;2023-01-19T05:18:40;11.93;;;8.45;;
39264;SDS011;42646;51.910;7.724;2023-01-19T05:21:10;13.27;;;8.68;;
39264;SDS011;42646;51.910;7.724;2023-01-19T05:23:38;15.90;;;10.02;;
39264;SDS011;42646;51.910;7.724;2023-01-19T05:26:12;12.68;;;8.82;;
39264;SDS011;42646;51.910;7.724;2023-01-19T05:28:40;14.48;;;9.43;;
39264;SDS011;42646;51.910;7.724;2023-01-19T05:31:09;15.32;;;9.00;;
39264;SDS011;42646;51.910;7.724;2023-01-19T05:33:37;18.90;;;11.43;;
39264;SDS011;42646;51.910;7.724;2023-01-19T05:36:06;13.15;;;8.95;;
39264;SDS011;42646;51.910;7.724;2023-01-19T05:38:34;14.27;;;9.52;;
39264;SDS011;42646;51.910;7.724;2023-01-19T05:41:01;12.52;;;7.93;;
39264;SDS011;42646;51.910;7.724;2023-01-19T05:43:29;10.75;;;7.97;;
39264;SDS011;42646;51.910;7.724;2023-01-19T05:45:57;10.88;;;7.55;;
39264;SDS011;42646;51.910;7.724;2023-01-19T05:48:25;10.23;;;7.30;;
39264;SDS011;42646;51.910;7.724;2023-01-19T05:50:55;10.02;;;7.43;;
39264;SDS011;42646;51.910;7.724;2023-01-19T05:53:25;10.85;;;7.68;;
39264;SDS011;42646;51.910;7.724;2023-01-19T05:55:57;8.77;;;6.88;;
39264;SDS011;42646;51.910;7.724;2023-01-19T05:58:26;11.85;;;8.45;;
39264;SDS011;42646;51.910;7.724;2023-01-19T06:00:54;9.85;;;7.20;;
39264;SDS011;42646;51.910;7.724;2023-01-19T06:03:22;10.68;;;7.60;;
39264;SDS011;42646;51.910;7.724;2023-01-19T06:05:50;10.90;;;8.18;;
39264;SDS011;42646;51.910;7.724;2023-01-19T06:08:18;9.98;;;7.63;;
39264;SDS011;42646;51.910;7.724;2023-01-19T06:10:47;11.23;;;8.40;;
39264;SDS011;42646;51.910;7.724;2023-01-19T06:13:14;10.77;;;8.05;;
39264;SDS011;42646;51.910;7.724;2023-01-19T06:15:42;11.25;;;8.23;;
39264;SDS011;42646;51.910;7.724;2023-01-19T06:18:10;12.93;;;9.10;;
39264;SDS011;42646;51.910;7.724;2023-01-19T06:20:39;10.70;;;7.97;;
39264;SDS011;42646;51.910;7.724;2023-01-19T06:23:07;10.48;;;7.80;;
39264;SDS011;42646;51.910;7.724;2023-01-19T06:25:35;9.93;;;7.78;;
39264;SDS011;42646;51.910;7.724;2023-01-19T06:28:04;10.55;;;7.75;;
39264;SDS011;42646;51.910;7.724;2023-01-19T06:30:32;10.20;;;7.97;;
39264;SDS011;42646;51.910;7.724;2023-01-19T06:33:00;9.82;;;7.75;;
39264;SDS011;42646;51.910;7.724;2023-01-19T06:35:28;9.88;;;7.70;;
39264;SDS011;42646;51.910;7.724;2023-01-19T06:37:57;9.52;;;7.15;;
39264;SDS011;42646;51.910;7.724;2023-01-19T06:40:25;10.13;;;7.60;;
39264;SDS011;42646;51.910;7.724;2023-01-19T06:42:53;9.65;;;7.32;;
39264;SDS011;42646;51.910;7.724;2023-01-19T06:45:22;8.90;;;6.63;;
39264;SDS011;42646;51.910;7.724;2023-01-19T06:47:49;8.68;;;6.50;;
39264;SDS011;42646;51.910;7.724;2023-01-19T06:50:17;8.38;;;6.45;;
39264;SDS011;42646;51.910;7.724;2023-01-19T06:52:48;8.25;;;6.63;;
39264;SDS011;42646;51.910;7.724;2023-01-19T06:55:16;9.05;;;6.38;;
39264;SDS011;42646;51.910;7.724;2023-01-19T06:57:44;9.02;;;7.15;;
39264;SDS011;42646;51.910;7.724;2023-01-19T07:00:13;9.10;;;7.13;;
39264;SDS011;42646;51.910;7.724;2023-01-19T07:02:42;7.18;;;6.03;;
39264;SDS011;42646;51.910;7.724;2023-01-19T07:05:11;8.18;;;6.28;;
39264;SDS011;42646;51.910;7.724;2023-01-19T07:07:39;8.60;;;6.65;;
39264;SDS011;42646;51.910;7.724;2023-01-19T07:10:09;8.23;;;6.72;;
39264;SDS011;42646;51.910;7.724;2023-01-19T07:12:39;7.97;;;6.35;;
39264;SDS011;42646;51.910;7.724;2023-01-19T07:15:08;10.45;;;7.13;;
39264;SDS011;42646;51.910;7.724;2023-01-19T07:18:01;9.40;;;7.35;;
39264;SDS011;42646;51.910;7.724;2023-01-19T07:20:34;9.23;;;7.65;;
39264;SDS011;42646;51.910;7.724;2023-01-19T07:23:03;9.07;;;7.13;;
39264;SDS011;42646;51.910;7.724;2023-01-19T07:25:31;9.77;;;7.47;;
39264;SDS011;42646;51.910;7.724;2023-01-19T07:28:00;9.32;;;7.57;;
39264;SDS011;42646;51.910;7.724;2023-01-19T07:30:29;9.18;;;6.72;;
39264;SDS011;42646;51.910;7.724;2023-01-19T07:33:26;8.18;;;6.68;;
39264;SDS011;42646;51.910;7.724;2023-01-19T07:35:55;7.45;;;6.30;;
39264;SDS011;42646;51.910;7.724;2023-01-19T07:38:23;8.60;;;6.90;;
39264;SDS011;42646;51.910;7.724;2023-01-19T07:40:59;7.82;;;6.15;;
39264;SDS011;42646;51.910;7.724;2023-01-19T07:43:27;7.53;;;6.00;;
39264;SDS011;42646;51.910;7.724;2023-01-19T07:45:54;7.18;;;5.80;;
39264;SDS011;42646;51.910;7.724;2023-01-19T07:48:22;8.43;;;6.20;;
39264;SDS011;42646;51.910;7.724;2023-01-19T07:50:51;7.60;;;6.00;;
39264;SDS011;42646;51.910;7.724;2023-01-19T07:53:19;8.10;;;6.28;;
39264;SDS011;42646;51.910;7.724;2023-01-19T07:55:52;7.78;;;6.13;;
39264;SDS011;42646;51.910;7.724;2023-01-19T07:58:22;8.10;;;6.15;;
39264;SDS011;42646;51.910;7.724;2023-01-19T08:00:50;9.05;;;6.38;;
39264;SDS011;42646;51.910;7.724;2023-01-19T08:03:19;7.85;;;6.00;;
39264;SDS011;42646;51.910;7.724;2023-01-19T08:05:48;8.00;;;6.13;;
39264;SDS011;42646;51.910;7.724;2023-01-19T08:08:18;7.43;;;5.68;;
39264;SDS011;42646;51.910;7.724;2023-01-19T08:11:11;8.63;;;6.47;;
39264;SDS011;42646;51.910;7.724;2023-01-19T08:13:38;8.98;;;6.55;;
39264;SDS011;42646;51.910;7.724;2023-01-19T08:16:08;8.98;;;6.78;;
39264;SDS011;42646;51.910;7.724;2023-01-19T08:18:36;9.55;;;6.93;;
39264;SDS011;42646;51.910;7.724;2023-01-19T08:21:03;9.45;;;7.20;;
39264;SDS011;42646;51.910;7.724;2023-01-19T08:23:33;10.60;;;7.70;;
39264;SDS011;42646;51.910;7.724;2023-01-19T08:26:15;9.48;;;7.32;;
39264;SDS011;42646;51.910;7.724;2023-01-19T08:28:45;11.43;;;7.20;;
39264;SDS011;42646;51.910;7.724;2023-01-19T08:31:13;10.18;;;7.40;;
39264;SDS011;42646;51.910;7.724;2023-01-19T08:33:47;11.80;;;8.45;;
39264;SDS011;42646;51.910;7.724;2023-01-19T08:36:16;11.02;;;8.35;;
39264;SDS011;42646;51.910;7.724;2023-01-19T08:38:45;12.25;;;8.40;;
39264;SDS011;42646;51.910;7.724;2023-01-19T08:41:13;10.95;;;7.65;;
39264;SDS011;42646;51.910;7.724;2023-01-19T08:43:42;11.73;;;8.32;;
39264;SDS011;42646;51.910;7.724;2023-01-19T08:46:14;11.30;;;8.05;;
39264;SDS011;42646;51.910;7.724;2023-01-19T08:48:44;10.10;;;7.63;;
39264;SDS011;42646;51.910;7.724;2023-01-19T08:51:13;10.60;;;8.38;;
39264;SDS011;42646;51.910;7.724;2023-01-19T08:53:41;13.80;;;8.88;;
39264;SDS011;42646;51.910;7.724;2023-01-19T08:56:10;12.30;;;8.68;;
39264;SDS011;42646;51.910;7.724;2023-01-19T08:58:40;10.55;;;8.32;;
39264;SDS011;42646;51.910;7.724;2023-01-19T09:01:10;13.27;;;8.43;;
39264;SDS011;42646;51.910;7.724;2023-01-19T09:03:40;11.43;;;8.23;;
39264;SDS011;42646;51.910;7.724;2023-01-19T09:06:08;12.85;;;8.32;;
39264;SDS011;42646;51.910;7.724;2023-01-19T09:08:38;11.60;;;8.00;;
39264;SDS011;42646;51.910;7.724;2023-01-19T09:11:08;14.07;;;8.80;;
39264;SDS011;42646;51.910;7.724;2023-01-19T09:13:39;11.55;;;7.72;;
39264;SDS011;42646;51.910;7.724;2023-01-19T09:16:09;13.25;;;7.82;;
39264;SDS011;42646;51.910;7.724;2023-01-19T09:18:38;13.52;;;8.15;;
39264;SDS011;42646;51.910;7.724;2023-01-19T09:21:06;12.27;;;8.05;;
39264;SDS011;42646;51.910;7.724;2023-01-19T09:23:35;11.32;;;7.25;;
39264;SDS011;42646;51.910;7.724;2023-01-19T09:26:03;11.90;;;8.48;;
39264;SDS011;42646;51.910;7.724;2023-01-19T09:28:32;11.02;;;7.03;;
39264;SDS011;42646;51.910;7.724;2023-01-19T09:31:04;11.90;;;7.07;;
39264;SDS011;42646;51.910;7.724;2023-01-19T09:33:33;9.93;;;6.80;;
39264;SDS011;42646;51.910;7.724;2023-01-19T09:36:04;10.45;;;6.32;;
39264;SDS011;42646;51.910;7.724;2023-01-19T09:38:33;9.00;;;6.22;;
39264;SDS011;42646;51.910;7.724;2023-01-19T09:41:01;10.80;;;6.32;;
39264;SDS011;42646;51.910;7.724;2023-01-19T09:43:34;8.95;;;6.60;;
39264;SDS011;42646;51.910;7.724;2023-01-19T09:46:10;10.18;;;6.38;;
39264;SDS011;42646;51.910;7.724;2023-01-19T09:48:42;8.65;;;6.20;;
39264;SDS011;42646;51.910;7.724;2023-01-19T09:51:14;10.18;;;5.80;;
39264;SDS011;42646;51.910;7.724;2023-01-19T09:53:49;10.68;;;6.97;;
39264;SDS011;42646;51.910;7.724;2023-01-19T09:56:23;10.82;;;6.72;;
39264;SDS011;42646;51.910;7.724;2023-01-19T09:58:51;8.55;;;6.30;;
39264;SDS011;42646;51.910;7.724;2023-01-19T10:01:27;12.68;;;7.05;;
39264;SDS011;42646;51.910;7.724;2023-01-19T10:04:39;11.82;;;6.43;;
39264;SDS011;42646;51.910;7.724;2023-01-19T10:07:13;10.70;;;6.97;;
39264;SDS011;42646;51.910;7.724;2023-01-19T10:09:55;13.80;;;7.28;;
39264;SDS011;42646;51.910;7.724;2023-01-19T10:12:35;13.40;;;7.30;;
39264;SDS011;42646;51.910;7.724;2023-01-19T10:15:14;11.43;;;6.60;;
39264;SDS011;42646;51.910;7.724;2023-01-19T10:17:55;12.43;;;6.32;;
39264;SDS011;42646;51.910;7.724;2023-01-19T10:20:34;11.48;;;6.72;;
39264;SDS011;42646;51.910;7.724;2023-01-19T10:23:12;13.05;;;6.90;;
39264;SDS011;42646;51.910;7.724;2023-01-19T10:25:49;11.40;;;7.00;;
39264;SDS011;42646;51.910;7.724;2023-01-19T10:28:18;14.05;;;7.47;;
39264;SDS011;42646;51.910;7.724;2023-01-19T10:30:50;13.88;;;8.07;;
39264;SDS011;42646;51.910;7.724;2023-01-19T10:33:21;11.48;;;7.25;;
39264;SDS011;42646;51.910;7.724;2023-01-19T10:35:49;15.23;;;8.23;;
39264;SDS011;42646;51.910;7.724;2023-01-19T10:38:17;14.63;;;8.13;;
39264;SDS011;42646;51.910;7.724;2023-01-19T10:40:49;13.48;;;7.50;;
39264;SDS011;42646;51.910;7.724;2023-01-19T10:43:35;12.20;;;7.55;;
39264;SDS011;42646;51.910;7.724;2023-01-19T10:46:15;13.18;;;8.10;;
39264;SDS011;42646;51.910;7.724;2023-01-19T10:48:49;12.60;;;7.80;;
39264;SDS011;42646;51.910;7.724;2023-01-19T10:51:21;13.20;;;7.47;;
39264;SDS011;42646;51.910;7.724;2023-01-19T10:53:52;14.00;;;7.88;;
39264;SDS011;42646;51.910;7.724;2023-01-19T10:56:23;16.77;;;8.98;;
39264;SDS011;42646;51.910;7.724;2023-01-19T10:58:53;13.77;;;8.05;;
39264;SDS011;42646;51.910;7.724;2023-01-19T11:01:22;13.70;;;8.00;;
39264;SDS011;42646;51.910;7.724;2023-01-19T11:03:52;16.40;;;8.90;;
39264;SDS011;42646;51.910;7.724;2023-01-19T11:06:26;12.45;;;8.10;;
39264;SDS011;42646;51.910;7.724;2023-01-19T11:09:08;14.20;;;8.45;;
39264;SDS011;42646;51.910;7.724;2023-01-19T11:11:40;23.30;;;10.63;;
39264;SDS011;42646;51.910;7.724;2023-01-19T11:14:11;18.75;;;9.75;;
39264;SDS011;42646;51.910;7.724;2023-01-19T11:16:40;16.58;;;10.13;;
39264;SDS011;42646;51.910;7.724;2023-01-19T11:19:17;16.50;;;10.38;;
39264;SDS011;42646;51.910;7.724;2023-01-19T11:21:47;16.50;;;11.15;;
39264;SDS011;42646;51.910;7.724;2023-01-19T11:24:15;23.45;;;11.23;;
39264;SDS011;42646;51.910;7.724;2023-01-19T11:26:44;18.15;;;12.60;;
39264;SDS011;42646;51.910;7.724;2023-01-19T11:29:15;17.48;;;11.55;;
39264;SDS011;42646;51.910;7.724;2023-01-19T11:31:52;21.15;;;12.50;;
39264;SDS011;42646;51.910;7.724;2023-01-19T11:34:29;22.02;;;13.30;;
39264;SDS011;42646;51.910;7.724;2023-01-19T11:37:01;20.88;;;13.10;;
39264;SDS011;42646;51.910;7.724;2023-01-19T11:39:31;19.92;;;12.60;;
39264;SDS011;42646;51.910;7.724;2023-01-19T11:44:42;18.88;;;12.35;;
39264;SDS011;42646;51.910;7.724;2023-01-19T11:47:15;17.63;;;11.65;;
39264;SDS011;42646;51.910;7.724;2023-01-19T11:50:00;21.23;;;13.23;;
39264;SDS011;42646;51.910;7.724;2023-01-19T11:52:33;22.95;;;13.10;;
39264;SDS011;42646;51.910;7.724;2023-01-19T11:55:11;19.58;;;13.38;;
39264;SDS011;42646;51.910;7.724;2023-01-19T11:57:46;19.42;;;12.95;;
39264;SDS011;42646;51.910;7.724;2023-01-19T12:00:22;20.02;;;13.88;;
39264;SDS011;42646;51.910;7.724;2023-01-19T12:02:58;20.48;;;13.93;;
39264;SDS011;42646;51.910;7.724;2023-01-19T12:05:32;21.77;;;14.40;;
39264;SDS011;42646;51.910;7.724;2023-01-19T12:08:02;22.38;;;14.35;;
39264;SDS011;42646;51.910;7.724;2023-01-19T12:10:34;22.77;;;13.95;;
39264;SDS011;42646;51.910;7.724;2023-01-19T12:13:09;25.23;;;13.57;;
39264;SDS011;42646;51.910;7.724;2023-01-19T12:15:46;20.58;;;13.52;;
39264;SDS011;42646;51.910;7.724;2023-01-19T12:18:17;23.10;;;13.50;;
39264;SDS011;42646;51.910;7.724;2023-01-19T12:20:54;23.52;;;13.18;;
39264;SDS011;42646;51.910;7.724;2023-01-19T12:23:27;20.00;;;12.27;;
39264;SDS011;42646;51.910;7.724;2023-01-19T12:26:07;19.23;;;12.88;;
39264;SDS011;42646;51.910;7.724;2023-01-19T12:28:53;18.83;;;12.00;;
39264;SDS011;42646;51.910;7.724;2023-01-19T12:31:23;14.07;;;11.38;;
39264;SDS011;42646;51.910;7.724;2023-01-19T12:33:51;19.33;;;12.95;;
39264;SDS011;42646;51.910;7.724;2023-01-19T12:36:37;18.08;;;11.95;;
39264;SDS011;42646;51.910;7.724;2023-01-19T12:39:10;19.20;;;11.90;;
39264;SDS011;42646;51.910;7.724;2023-01-19T12:41:44;20.33;;;12.38;;
39264;SDS011;42646;51.910;7.724;2023-01-19T12:44:18;18.27;;;12.45;;
39264;SDS011;42646;51.910;7.724;2023-01-19T12:46:51;20.83;;;11.98;;
39264;SDS011;42646;51.910;7.724;2023-01-19T12:49:23;18.52;;;12.90;;
39264;SDS011;42646;51.910;7.724;2023-01-19T12:52:20;19.20;;;11.90;;
39264;SDS011;42646;51.910;7.724;2023-01-19T12:54:55;16.52;;;11.48;;
39264;SDS011;42646;51.910;7.724;2023-01-19T12:57:28;18.23;;;12.02;;
39264;SDS011;42646;51.910;7.724;2023-01-19T12:59:59;20.52;;;12.02;;
39264;SDS011;42646;51.910;7.724;2023-01-19T13:08:27;22.73;;;12.50;;
39264;SDS011;42646;51.910;7.724;2023-01-19T13:11:19;17.75;;;11.75;;
39264;SDS011;42646;51.910;7.724;2023-01-19T13:17:01;22.02;;;12.07;;
39264;SDS011;42646;51.910;7.724;2023-01-19T13:19:36;26.92;;;12.77;;
39264;SDS011;42646;51.910;7.724;2023-01-19T13:25:49;19.67;;;12.13;;
39264;SDS011;42646;51.910;7.724;2023-01-19T13:28:22;18.98;;;11.90;;
39264;SDS011;42646;51.910;7.724;2023-01-19T13:30:57;21.35;;;12.68;;
39264;SDS011;42646;51.910;7.724;2023-01-19T13:36:00;21.58;;;12.82;;
39264;SDS011;42646;51.910;7.724;2023-01-19T13:38:31;24.02;;;12.25;;
39264;SDS011;42646;51.910;7.724;2023-01-19T13:40:59;23.77;;;12.25;;
39264;SDS011;42646;51.910;7.724;2023-01-19T13:43:35;18.52;;;12.13;;
39264;SDS011;42646;51.910;7.724;2023-01-19T13:46:04;19.27;;;11.52;;
39264;SDS011;42646;51.910;7.724;2023-01-19T13:48:32;19.85;;;11.80;;
39264;SDS011;42646;51.910;7.724;2023-01-19T13:51:01;21.33;;;11.50;;
39264;SDS011;42646;51.910;7.724;2023-01-19T13:53:30;19.65;;;11.07;;
39264;SDS011;42646;51.910;7.724;2023-01-19T13:56:06;17.15;;;10.90;;
39264;SDS011;42646;51.910;7.724;2023-01-19T13:58:37;20.73;;;11.60;;
39264;SDS011;42646;51.910;7.724;2023-01-19T14:01:05;19.00;;;10.43;;
39264;SDS011;42646;51.910;7.724;2023-01-19T14:03:46;19.17;;;10.38;;
39264;SDS011;42646;51.910;7.724;2023-01-19T14:06:21;18.52;;;10.90;;
39264;SDS011;42646;51.910;7.724;2023-01-19T14:17:00;17.20;;;9.52;;
39264;SDS011;42646;51.910;7.724;2023-01-19T14:19:28;18.75;;;10.88;;
39264;SDS011;42646;51.910;7.724;2023-01-19T14:21:56;20.25;;;10.50;;
39264;SDS011;42646;51.910;7.724;2023-01-19T14:24:25;21.00;;;10.05;;
39264;SDS011;42646;51.910;7.724;2023-01-19T14:29:40;16.90;;;9.65;;
39264;SDS011;42646;51.910;7.724;2023-01-19T14:32:13;19.88;;;10.85;;
39264;SDS011;42646;51.910;7.724;2023-01-19T14:34:43;18.48;;;9.57;;
39264;SDS011;42646;51.910;7.724;2023-01-19T14:37:19;19.15;;;11.40;;
39264;SDS011;42646;51.910;7.724;2023-01-19T14:39:50;20.52;;;11.68;;
39264;SDS011;42646;51.910;7.724;2023-01-19T14:42:23;20.48;;;12.40;;
39264;SDS011;42646;51.910;7.724;2023-01-19T14:44:55;23.30;;;12.00;;
39264;SDS011;42646;51.910;7.724;2023-01-19T14:47:32;21.90;;;12.52;;
39264;SDS011;42646;51.910;7.724;2023-01-19T14:50:17;22.27;;;12.05;;
39264;SDS011;42646;51.910;7.724;2023-01-19T14:52:51;22.27;;;11.57;;
39264;SDS011;42646;51.910;7.724;2023-01-19T14:55:23;24.65;;;12.00;;
39264;SDS011;42646;51.910;7.724;2023-01-19T14:57:58;23.05;;;11.48;;
39264;SDS011;42646;51.910;7.724;2023-01-19T15:00:28;21.27;;;12.85;;
39264;SDS011;42646;51.910;7.724;2023-01-19T15:02:56;18.73;;;10.98;;
39264;SDS011;42646;51.910;7.724;2023-01-19T15:05:24;19.75;;;11.60;;
39264;SDS011;42646;51.910;7.724;2023-01-19T15:07:56;19.65;;;12.30;;
39264;SDS011;42646;51.910;7.724;2023-01-19T15:10:24;24.35;;;13.07;;
39264;SDS011;42646;51.910;7.724;2023-01-19T15:12:53;23.20;;;13.10;;
39264;SDS011;42646;51.910;7.724;2023-01-19T15:15:23;22.95;;;11.77;;
39264;SDS011;42646;51.910;7.724;2023-01-19T15:17:58;20.30;;;12.10;;
39264;SDS011;42646;51.910;7.724;2023-01-19T15:20:27;22.17;;;12.63;;
39264;SDS011;42646;51.910;7.724;2023-01-19T15:22:55;22.30;;;12.95;;
39264;SDS011;42646;51.910;7.724;2023-01-19T15:25:23;24.02;;;12.45;;
39264;SDS011;42646;51.910;7.724;2023-01-19T15:27:52;20.88;;;11.98;;
39264;SDS011;42646;51.910;7.724;2023-01-19T15:30:23;24.25;;;12.55;;
39264;SDS011;42646;51.910;7.724;2023-01-19T15:32:54;26.08;;;13.32;;
39264;SDS011;42646;51.910;7.724;2023-01-19T15:35:25;20.67;;;12.75;;
39264;SDS011;42646;51.910;7.724;2023-01-19T15:37:53;22.88;;;14.02;;